createdAt,value
2019-03-05T00:02:39.895Z,100269.64
2019-03-05T00:05:31.415Z,100277.83
2019-03-05T00:08:23.111Z,100261.92
2019-03-05T00:11:14.806Z,100265.45
2019-03-05T00:14:06.403Z,100267.72
2019-03-05T00:16:58.055Z,100272.23
2019-03-05T00:19:49.440Z,100266.11
2019-03-05T00:22:41.479Z,100259.77
2019-03-05T00:25:33.092Z,100261.20
2019-03-05T00:28:46.337Z,100263.19
2019-03-05T00:31:39.797Z,100250.97
2019-03-05T00:35:04.797Z,100255.16
2019-03-05T00:38:17.241Z,100260.97
2019-03-05T12:30:42.844Z,100526.67
2019-03-05T12:33:35.321Z,100516.11
2019-03-05T12:36:27.347Z,100512.07
2019-03-05T12:39:20.931Z,100516.22
2019-03-05T12:42:12.348Z,100515.14
2019-03-05T12:45:05.145Z,100525.40
2019-03-05T12:47:56.781Z,100523.62
2019-03-05T12:50:48.163Z,100530.50
2019-03-05T12:53:39.656Z,100530.26
2019-03-05T12:56:31.395Z,100545.91
2019-03-05T12:59:22.681Z,100540.08
2019-03-05T13:02:14.539Z,100535.70
2019-03-05T13:05:09.325Z,100536.28
2019-03-05T13:08:00.662Z,100539.83
2019-03-05T13:10:52.922Z,100560.74
2019-03-05T13:13:47.514Z,100558.11
2019-03-05T13:16:39.445Z,100563.01
2019-03-05T13:19:32.659Z,100565.77
2019-03-05T13:22:28.760Z,100544.01
2019-03-05T13:25:18.697Z,100543.89
2019-03-05T13:28:10.423Z,100546.72
2019-03-05T13:31:04.996Z,100558.05
2019-03-05T13:33:56.109Z,100549.06
2019-03-05T13:36:50.713Z,100550.70
2019-03-05T13:39:40.983Z,100555.67
2019-03-05T13:42:33.340Z,100557.51
2019-03-05T13:45:27.109Z,100570.98
2019-03-05T13:49:27.828Z,100580.64
2019-03-05T13:52:56.004Z,100581.36
2019-03-05T13:56:42.237Z,100585.16
2019-03-05T14:00:07.769Z,100581.23
2019-03-05T14:03:03.054Z,100596.30
2019-03-05T14:06:41.238Z,100593.82
2019-03-05T14:09:30.257Z,100595.82
2019-03-05T14:12:21.969Z,100597.73
2019-03-05T14:15:13.632Z,100598.08
2019-03-05T14:18:05.613Z,100602.90
2019-03-05T14:20:57.207Z,100603.53
2019-03-05T14:23:49.005Z,100595.94
2019-03-05T14:26:40.547Z,100602.97
2019-03-05T14:29:31.964Z,100600.84
2019-03-05T14:32:23.625Z,100597.11
2019-03-05T14:35:19.064Z,100596.47
2019-03-05T14:38:10.411Z,100596.45
2019-03-05T14:41:02.104Z,100605.55
2019-03-05T14:43:53.844Z,100604.23
2019-03-05T14:46:48.335Z,100600.05
2019-03-05T14:49:40.198Z,100601.41
2019-03-05T14:52:33.516Z,100597.73
2019-03-05T14:55:25.240Z,100597.73
2019-03-05T14:58:16.693Z,100601.84
2019-03-05T15:01:09.166Z,100599.30
2019-03-05T15:04:00.697Z,100597.56
2019-03-05T15:06:52.537Z,100598.08
2019-03-05T15:09:44.053Z,100597.16
2019-03-05T15:12:36.366Z,100598.04
2019-03-05T15:15:30.481Z,100600.36
2019-03-05T15:18:22.177Z,100597.55
2019-03-05T15:21:13.977Z,100596.70
2019-03-05T15:24:05.959Z,100597.16
2019-03-05T15:26:57.770Z,100600.24
2019-03-05T15:29:50.023Z,100596.84
2019-03-05T15:32:42.360Z,100596.13
2019-03-05T15:35:34.173Z,100589.94
2019-03-05T15:38:25.897Z,100584.23
2019-03-05T15:41:17.572Z,100594.59
2019-03-05T15:44:09.163Z,100591.00
2019-03-05T15:49:26.779Z,100600.90
2019-03-05T15:52:18.481Z,100599.92
2019-03-05T15:55:12.176Z,100601.83
2019-03-05T15:58:03.482Z,100593.56
2019-03-05T16:00:54.863Z,100602.20
2019-03-05T16:03:46.265Z,100594.91
2019-03-05T16:06:37.547Z,100599.98
2019-03-05T16:09:29.161Z,100602.74
2019-03-05T16:12:20.612Z,100605.41
2019-03-05T16:15:12.094Z,100607.06
2019-03-05T16:18:05.297Z,100603.89
2019-03-05T16:20:58.205Z,100603.88
2019-03-05T16:23:49.719Z,100611.13
2019-03-05T16:26:41.521Z,100606.52
2019-03-05T16:29:33.409Z,100608.89
2019-03-05T16:32:43.316Z,100608.41
2019-03-05T16:35:45.118Z,100608.88
2019-03-05T16:39:11.245Z,100608.34
2019-03-05T16:42:32.266Z,100604.66
2019-03-05T16:45:43.115Z,100612.20
2019-03-05T16:49:02.836Z,100613.87
2019-03-05T16:52:13.271Z,100616.28
2019-03-05T16:55:23.440Z,100619.53
2019-03-05T16:58:40.993Z,100617.56
2019-03-05T17:02:03.019Z,100612.34
2019-03-05T17:05:06.183Z,100614.50
2019-03-05T17:08:09.389Z,100615.34
2019-03-05T17:11:26.603Z,100617.55
2019-03-05T17:14:18.388Z,100625.17
2019-03-05T17:17:09.779Z,100624.89
2019-03-05T17:20:01.910Z,100623.11
2019-03-05T17:22:54.773Z,100624.44
2019-03-05T17:25:46.363Z,100624.88
2019-03-05T17:28:37.797Z,100626.30
2019-03-05T17:31:29.148Z,100629.31
2019-03-05T17:34:20.932Z,100626.81
2019-03-05T17:37:12.341Z,100628.48
2019-03-05T17:40:03.881Z,100629.31
2019-03-05T17:42:56.511Z,100629.33
2019-03-05T17:45:47.983Z,100626.28
2019-03-05T17:48:39.313Z,100631.28
2019-03-05T17:51:31.091Z,100628.27
2019-03-05T17:54:23.668Z,100625.00
2019-03-05T17:57:15.779Z,100625.67
2019-03-05T18:00:09.304Z,100633.64
2019-03-05T18:03:01.004Z,100633.87
2019-03-05T18:05:53.572Z,100639.07
2019-03-05T18:08:45.213Z,100639.48
2019-03-05T18:11:36.806Z,100642.03
2019-03-05T18:14:29.302Z,100643.77
2019-03-05T18:17:20.787Z,100649.70
2019-03-05T18:20:14.184Z,100646.83
2019-03-05T18:23:06.640Z,100648.47
2019-03-05T18:25:58.317Z,100646.36
2019-03-05T18:28:50.936Z,100653.03
2019-03-05T18:31:43.521Z,100652.78
2019-03-05T18:34:35.403Z,100655.11
2019-03-05T18:37:26.958Z,100653.52
2019-03-05T18:40:19.650Z,100655.52
2019-03-05T18:43:11.206Z,100648.41
2019-03-05T18:46:03.438Z,100647.43
2019-03-05T18:48:54.983Z,100647.13
2019-03-05T18:51:46.604Z,100650.02
2019-03-05T18:54:38.441Z,100647.92
2019-03-05T18:57:29.991Z,100651.77
2019-03-05T19:00:24.199Z,100649.03
2019-03-05T19:03:15.771Z,100644.92
2019-03-05T19:06:07.414Z,100644.93
2019-03-05T19:08:58.798Z,100646.78
2019-03-05T19:11:50.642Z,100643.58
2019-03-05T19:14:42.371Z,100640.80
2019-03-05T19:17:33.979Z,100639.02
2019-03-05T19:20:26.103Z,100640.87
2019-03-05T19:23:18.447Z,100640.20
2019-03-05T19:26:13.027Z,100641.50
2019-03-05T19:29:04.893Z,100640.69
2019-03-05T19:31:56.669Z,100643.95
2019-03-05T19:34:47.967Z,100636.12
2019-03-05T19:37:40.659Z,100636.87
2019-03-05T19:40:34.588Z,100629.16
2019-03-05T19:43:25.942Z,100625.20
2019-03-05T19:46:17.547Z,100616.31
2019-03-05T19:49:08.922Z,100615.52
2019-03-05T19:52:00.275Z,100617.37
2019-03-05T19:54:51.802Z,100614.02
2019-03-05T19:57:43.507Z,100615.80
2019-03-05T20:00:36.668Z,100612.54
2019-03-05T20:03:28.545Z,100608.76
2019-03-05T20:06:20.466Z,100615.72
2019-03-05T20:09:16.297Z,100615.83
2019-03-05T20:12:08.359Z,100612.28
2019-03-05T20:15:00.002Z,100613.02
2019-03-05T20:17:58.701Z,100612.52
2019-03-05T20:20:45.252Z,100618.66
2019-03-05T20:23:36.668Z,100613.44
2019-03-05T20:26:28.221Z,100618.42
2019-03-05T20:29:20.483Z,100617.55
2019-03-05T20:32:11.983Z,100613.92
2019-03-05T20:35:03.899Z,100613.05
2019-03-05T20:37:55.647Z,100615.41
2019-03-05T20:40:47.053Z,100609.64
2019-03-05T20:43:39.068Z,100613.03
2019-03-05T20:46:30.921Z,100612.32
2019-03-05T20:49:22.531Z,100602.73
2019-03-05T20:52:14.762Z,100607.28
2019-03-05T20:55:08.726Z,100604.78
2019-03-05T20:57:59.428Z,100605.52
